createdAt,value
2023-02-15T00:04:25.592Z,41.70
2023-02-15T00:10:07.984Z,41.71
2023-02-15T00:15:49.752Z,41.69
2023-02-15T00:21:32.232Z,41.68
2023-02-15T00:27:13.726Z,41.64
2023-02-15T00:32:55.510Z,41.62
2023-02-15T00:38:36.972Z,41.75
2023-02-15T00:44:18.666Z,41.78
2023-02-15T00:50:00.913Z,41.75
2023-02-15T00:55:41.602Z,41.73
2023-02-15T01:01:23.369Z,41.72
2023-02-15T01:07:06.602Z,41.71
2023-02-15T01:12:48.361Z,41.68
2023-02-15T01:18:30.455Z,41.68
2023-02-15T01:24:14.406Z,41.67
2023-02-15T01:29:55.823Z,41.64
2023-02-15T01:35:37.982Z,41.65
2023-02-15T01:41:23.592Z,41.61
2023-02-15T01:47:05.080Z,41.62
2023-02-15T01:53:18.101Z,41.60
2023-02-15T01:59:01.439Z,41.60
2023-02-15T02:04:35.373Z,41.60
2023-02-15T02:10:18.959Z,41.60
2023-02-15T13:02:49.781Z,41.75
2023-02-15T13:08:23.037Z,41.85
2023-02-15T13:14:01.172Z,41.84
2023-02-15T13:19:49.418Z,41.90
2023-02-15T13:25:23.284Z,41.98
2023-02-15T13:30:48.388Z,42.07
2023-02-15T13:36:35.658Z,42.25
2023-02-15T13:42:05.556Z,42.22
2023-02-15T13:47:46.696Z,42.34
2023-02-15T13:53:19.204Z,42.27
2023-02-15T13:59:05.280Z,42.34
2023-02-15T14:04:44.306Z,42.56
2023-02-15T14:10:21.354Z,42.65
2023-02-15T14:15:52.721Z,42.74
2023-02-15T14:21:19.377Z,42.78
2023-02-15T14:27:01.783Z,42.67
2023-02-15T14:32:47.482Z,42.77
2023-02-15T14:38:26.639Z,42.78
2023-02-15T14:44:29.252Z,43.19
2023-02-15T14:49:53.983Z,43.42
2023-02-15T14:55:37.412Z,43.62
2023-02-15T15:01:09.345Z,43.64
2023-02-15T15:06:35.027Z,43.75
2023-02-15T15:12:28.319Z,43.81
2023-02-15T15:18:12.074Z,43.84
2023-02-15T15:23:43.907Z,43.85
2023-02-15T15:34:41.789Z,35.66
2023-02-15T15:40:15.179Z,39.83
2023-02-15T15:45:54.984Z,43.35
2023-02-15T15:51:24.779Z,45.82
2023-02-15T15:57:41.691Z,47.78
2023-02-15T16:03:06.628Z,50.09
2023-02-15T16:08:33.568Z,51.99
2023-02-15T16:13:58.232Z,52.64
2023-02-15T16:19:25.776Z,54.25
2023-02-15T16:25:14.630Z,54.51
2023-02-15T16:30:40.999Z,55.04
2023-02-15T16:36:08.846Z,55.60
2023-02-15T16:41:33.113Z,55.81
2023-02-15T16:46:57.711Z,55.94
2023-02-15T16:52:25.974Z,56.44
2023-02-15T16:57:50.907Z,56.81
2023-02-15T17:03:26.006Z,57.31
2023-02-15T17:08:51.322Z,58.15
2023-02-15T17:14:22.325Z,58.66
2023-02-15T17:19:50.729Z,59.06
2023-02-15T17:25:45.107Z,59.62
2023-02-15T17:31:11.043Z,59.94
2023-02-15T17:51:33.238Z,60.15
2023-02-15T17:57:16.801Z,61.00
2023-02-15T18:03:16.819Z,61.33
2023-02-15T18:09:16.868Z,61.56
2023-02-15T18:14:58.564Z,61.72
2023-02-15T18:20:42.117Z,61.79
2023-02-15T18:26:24.710Z,73.46
2023-02-15T18:32:30.861Z,77.23
2023-02-15T18:38:12.969Z,72.89
2023-02-15T18:43:37.808Z,67.56
2023-02-15T18:49:02.127Z,62.42
2023-02-15T18:54:26.521Z,52.80
2023-02-15T18:59:51.917Z,47.44
2023-02-15T19:05:18.441Z,47.67
2023-02-15T19:10:43.013Z,48.81
2023-02-15T19:16:09.274Z,50.84
2023-02-15T19:21:34.367Z,54.27
2023-02-15T19:27:38.291Z,57.85
2023-02-15T19:33:21.837Z,60.53
2023-02-15T19:39:33.536Z,62.91
2023-02-15T19:45:33.209Z,61.98
2023-02-15T19:50:57.643Z,57.42
2023-02-15T19:56:57.846Z,61.49
2023-02-15T20:02:58.321Z,61.20
2023-02-15T20:08:23.973Z,57.59
2023-02-15T20:13:48.781Z,60.35
2023-02-15T20:19:16.123Z,63.18
2023-02-15T20:24:40.871Z,59.16
2023-02-15T20:30:07.426Z,57.57
2023-02-15T20:35:31.917Z,61.23
2023-02-15T20:41:15.519Z,62.17
2023-02-15T20:46:40.391Z,56.96
2023-02-15T20:52:05.630Z,58.65
2023-02-15T20:57:30.474Z,62.17
2023-02-15T21:02:56.239Z,64.82
2023-02-15T21:08:22.771Z,58.78
2023-02-15T21:13:49.321Z,56.32
2023-02-15T21:19:24.604Z,59.07
2023-02-15T21:24:52.840Z,59.70
2023-02-15T21:30:18.181Z,59.21
2023-02-15T21:35:43.978Z,61.56
2023-02-15T21:41:32.021Z,66.63
2023-02-15T21:47:15.880Z,70.15
2023-02-15T21:52:40.313Z,67.82
2023-02-15T21:58:04.810Z,65.06
2023-02-15T22:03:36.272Z,61.21
2023-02-15T22:09:00.502Z,53.85
2023-02-15T22:14:38.393Z,56.33
2023-02-15T22:20:04.092Z,61.65
2023-02-15T22:25:28.538Z,61.90
2023-02-15T22:30:52.574Z,57.97
2023-02-15T22:36:27.359Z,61.65
2023-02-15T22:41:52.371Z,61.74
2023-02-15T22:47:27.171Z,58.06
2023-02-15T22:52:52.120Z,62.08
2023-02-15T22:58:20.737Z,61.61
2023-02-15T23:03:44.896Z,58.44
2023-02-15T23:09:08.855Z,62.70
2023-02-15T23:14:34.967Z,60.79
2023-02-15T23:19:59.288Z,58.92
2023-02-15T23:25:28.280Z,63.36
2023-02-15T23:30:52.617Z,60.13
2023-02-15T23:36:36.073Z,59.28
2023-02-15T23:42:01.310Z,63.48
2023-02-15T23:47:47.773Z,61.72
2023-02-15T23:53:11.882Z,57.11
2023-02-15T23:58:38.184Z,61.26
